KLRF/LRF METAR and TAF weather

Enter ICAO airport designator
Station Type Date Time Source
KLRF METAR 2019/12/10 05:56 UTC NOAA

KLRF 100556Z AUTO 33012KT 10SM OVC021 08/03 A3003 RMK AO2 DZB07E08RAB08E27 CIG 019 RWY07 SLP171 P0000 60000 T00800029 10171 20080 402060080 52033 $


Station Type Date Time Source
KLRF Decoded METAR 2019/12/10 05:56 UTC NOAA

Little Rock Air Force Base, AR, United States (KLRF) 34-55N 092-09W
Dec 10, 2019 - 12:56 AM EST / 2019.12.10 0556 UTC
Wind: from the NNW (330 degrees) at 14 MPH (12 KT):0
Visibility: 10 mile(s):0
Sky conditions: overcast
Precipitation last hour: A trace
Temperature: 46.4 F (8.0 C)
Dew Point: 37.2 F (2.9 C)
Relative Humidity: 70%
Pressure (altimeter): 30.03 in. Hg (1016 hPa)
Pressure tendency: 0.10 inches (3.3 hPa) higher than three hours ago
ob: KLRF 100556Z AUTO 33012KT 10SM OVC021 08/03 A3003 RMK AO2 DZB07E08RAB08E27 CIG 019 RWY07 SLP171 P0000 60000 T00800029 10171 20080 402060080 52033
cycle: 6

Station Type Date Time Source
KLRF TAF 2019/12/09 23:03 UTC NOAA

TAF KLRF 092300Z 0923/1105 27009KT 9999 OVC100 510307 QNH2979INS
BECMG 1004/1005 35015G20KT 9999 BKN020 OVC080 640308 510307 QNH2997INS
BECMG 1007/1008 35012G18KT 9000 -SHRA BKN015 OVC030 640208 510307 QNH3007INS
BECMG 1012/1013 36012KT 9000 -RASN BKN010 640208 540109 QNH3013INS
BECMG 1014/1015 01009KT 9999 NSW SCT050 540208 QNH3019INS
BECMG 1020/1021 VRB06KT 9999 SCT100 540208 QNH3025INS TX18/1001Z TN00/1011Z

Example: see airport list